sensor_id;sensor_type;location;lat;lon;timestamp;pressure;altitude;pressure_sealevel;temperature
20848;BMP180;10584;50.854;12.902;2023-02-19T00:04:37;98035.00;;;8.40
20848;BMP180;10584;50.854;12.902;2023-02-19T00:10:11;98035.00;;;8.40
20848;BMP180;10584;50.854;12.902;2023-02-19T00:15:33;98031.00;;;8.50
20848;BMP180;10584;50.854;12.902;2023-02-19T00:21:03;98022.00;;;8.30
20848;BMP180;10584;50.854;12.902;2023-02-19T00:26:51;98011.00;;;8.40
20848;BMP180;10584;50.854;12.902;2023-02-19T00:32:39;98013.00;;;8.30
20848;BMP180;10584;50.854;12.902;2023-02-19T00:38:23;97990.00;;;8.30
20848;BMP180;10584;50.854;12.902;2023-02-19T00:44:01;97993.00;;;8.30
20848;BMP180;10584;50.854;12.902;2023-02-19T00:49:29;97989.00;;;8.20
20848;BMP180;10584;50.854;12.902;2023-02-19T00:54:50;97981.00;;;8.20
20848;BMP180;10584;50.854;12.902;2023-02-19T01:00:12;97979.00;;;8.10
20848;BMP180;10584;50.854;12.902;2023-02-19T01:05:39;97972.00;;;8.10
20848;BMP180;10584;50.854;12.902;2023-02-19T01:11:34;97962.00;;;7.90
20848;BMP180;10584;50.854;12.902;2023-02-19T01:17:09;97967.00;;;7.70
20848;BMP180;10584;50.854;12.902;2023-02-19T01:22:39;97947.00;;;7.80
20848;BMP180;10584;50.854;12.902;2023-02-19T01:28:21;97931.00;;;7.80
20848;BMP180;10584;50.854;12.902;2023-02-19T01:34:02;97914.00;;;7.80
20848;BMP180;10584;50.854;12.902;2023-02-19T01:39:31;97910.00;;;7.70
20848;BMP180;10584;50.854;12.902;2023-02-19T01:50:45;97885.00;;;7.60
20848;BMP180;10584;50.854;12.902;2023-02-19T01:56:26;97877.00;;;7.50
20848;BMP180;10584;50.854;12.902;2023-02-19T02:01:53;97871.00;;;7.50
20848;BMP180;10584;50.854;12.902;2023-02-19T02:07:24;97855.00;;;7.50
20848;BMP180;10584;50.854;12.902;2023-02-19T02:13:10;97850.00;;;7.60
20848;BMP180;10584;50.854;12.902;2023-02-19T02:19:10;97829.00;;;7.50
20848;BMP180;10584;50.854;12.902;2023-02-19T02:35:57;97802.00;;;7.50
20848;BMP180;10584;50.854;12.902;2023-02-19T02:42:02;97794.00;;;7.60
20848;BMP180;10584;50.854;12.902;2023-02-19T02:54:10;97778.00;;;7.50
20848;BMP180;10584;50.854;12.902;2023-02-19T03:00:00;97771.00;;;7.40
20848;BMP180;10584;50.854;12.902;2023-02-19T03:05:33;97769.00;;;7.40
20848;BMP180;10584;50.854;12.902;2023-02-19T03:11:21;97757.00;;;7.40
20848;BMP180;10584;50.854;12.902;2023-02-19T03:17:46;97760.00;;;7.40
20848;BMP180;10584;50.854;12.902;2023-02-19T03:23:39;97745.00;;;7.50
20848;BMP180;10584;50.854;12.902;2023-02-19T03:29:35;97727.00;;;7.40
20848;BMP180;10584;50.854;12.902;2023-02-19T03:35:08;97722.00;;;7.50
20848;BMP180;10584;50.854;12.902;2023-02-19T03:40:41;97726.00;;;7.50
20848;BMP180;10584;50.854;12.902;2023-02-19T03:46:28;97727.00;;;7.50
20848;BMP180;10584;50.854;12.902;2023-02-19T03:52:12;97712.00;;;7.60
20848;BMP180;10584;50.854;12.902;2023-02-19T03:58:04;97708.00;;;7.60
20848;BMP180;10584;50.854;12.902;2023-02-19T04:04:03;97716.00;;;7.60
20848;BMP180;10584;50.854;12.902;2023-02-19T04:09:46;97705.00;;;7.70
20848;BMP180;10584;50.854;12.902;2023-02-19T04:15:14;97704.00;;;7.70
20848;BMP180;10584;50.854;12.902;2023-02-19T04:20:41;97707.00;;;7.80
20848;BMP180;10584;50.854;12.902;2023-02-19T04:26:19;97705.00;;;7.70
20848;BMP180;10584;50.854;12.902;2023-02-19T04:32:05;97711.00;;;7.70
20848;BMP180;10584;50.854;12.902;2023-02-19T04:37:36;97703.00;;;7.70
20848;BMP180;10584;50.854;12.902;2023-02-19T04:43:24;97708.00;;;7.60
20848;BMP180;10584;50.854;12.902;2023-02-19T04:49:02;97702.00;;;7.70
20848;BMP180;10584;50.854;12.902;2023-02-19T04:54:33;97705.00;;;7.70
20848;BMP180;10584;50.854;12.902;2023-02-19T04:59:54;97696.00;;;7.70
20848;BMP180;10584;50.854;12.902;2023-02-19T05:05:19;97694.00;;;7.70
20848;BMP180;10584;50.854;12.902;2023-02-19T05:11:09;97698.00;;;7.70
20848;BMP180;10584;50.854;12.902;2023-02-19T05:16:51;97700.00;;;7.80
20848;BMP180;10584;50.854;12.902;2023-02-19T05:22:42;97708.00;;;7.70
20848;BMP180;10584;50.854;12.902;2023-02-19T05:28:13;97709.00;;;7.80
20848;BMP180;10584;50.854;12.902;2023-02-19T05:33:57;97713.00;;;7.70
20848;BMP180;10584;50.854;12.902;2023-02-19T05:39:28;97718.00;;;7.70
20848;BMP180;10584;50.854;12.902;2023-02-19T05:44:53;97726.00;;;7.70
20848;BMP180;10584;50.854;12.902;2023-02-19T05:50:15;97745.00;;;7.70
20848;BMP180;10584;50.854;12.902;2023-02-19T05:55:36;97741.00;;;7.70
20848;BMP180;10584;50.854;12.902;2023-02-19T06:00:58;97761.00;;;7.70
20848;BMP180;10584;50.854;12.902;2023-02-19T06:06:30;97783.00;;;7.70
20848;BMP180;10584;50.854;12.902;2023-02-19T06:12:25;97781.00;;;7.70
20848;BMP180;10584;50.854;12.902;2023-02-19T06:18:00;97804.00;;;7.60
20848;BMP180;10584;50.854;12.902;2023-02-19T06:23:44;97822.00;;;7.60
20848;BMP180;10584;50.854;12.902;2023-02-19T06:29:10;97834.00;;;7.60
20848;BMP180;10584;50.854;12.902;2023-02-19T06:34:37;97833.00;;;7.50
20848;BMP180;10584;50.854;12.902;2023-02-19T06:39:58;97825.00;;;7.50
20848;BMP180;10584;50.854;12.902;2023-02-19T06:45:20;97823.00;;;7.40
20848;BMP180;10584;50.854;12.902;2023-02-19T06:50:41;97833.00;;;7.40
20848;BMP180;10584;50.854;12.902;2023-02-19T06:56:31;97861.00;;;7.30
20848;BMP180;10584;50.854;12.902;2023-02-19T07:02:08;97846.00;;;7.30
20848;BMP180;10584;50.854;12.902;2023-02-19T07:07:45;97853.00;;;7.30
20848;BMP180;10584;50.854;12.902;2023-02-19T07:13:11;97873.00;;;7.20
20848;BMP180;10584;50.854;12.902;2023-02-19T07:18:49;97884.00;;;7.20
20848;BMP180;10584;50.854;12.902;2023-02-19T07:24:15;97889.00;;;7.00
20848;BMP180;10584;50.854;12.902;2023-02-19T07:29:45;97893.00;;;7.10
20848;BMP180;10584;50.854;12.902;2023-02-19T07:35:07;97884.00;;;7.10
20848;BMP180;10584;50.854;12.902;2023-02-19T07:40:28;97895.00;;;7.10
20848;BMP180;10584;50.854;12.902;2023-02-19T07:45:57;97909.00;;;7.20
20848;BMP180;10584;50.854;12.902;2023-02-19T07:51:40;97908.00;;;7.10
20848;BMP180;10584;50.854;12.902;2023-02-19T07:57:15;97910.00;;;7.00
20848;BMP180;10584;50.854;12.902;2023-02-19T08:03:04;97914.00;;;7.10
20848;BMP180;10584;50.854;12.902;2023-02-19T08:08:43;97912.00;;;7.10
20848;BMP180;10584;50.854;12.902;2023-02-19T08:14:23;97910.00;;;7.20
20848;BMP180;10584;50.854;12.902;2023-02-19T08:19:44;97928.00;;;7.00
20848;BMP180;10584;50.854;12.902;2023-02-19T08:25:06;97929.00;;;7.00
20848;BMP180;10584;50.854;12.902;2023-02-19T08:30:29;97948.00;;;7.00
20848;BMP180;10584;50.854;12.902;2023-02-19T08:36:10;97953.00;;;7.00
20848;BMP180;10584;50.854;12.902;2023-02-19T08:41:45;97972.00;;;6.80
20848;BMP180;10584;50.854;12.902;2023-02-19T08:47:12;97983.00;;;6.90
20848;BMP180;10584;50.854;12.902;2023-02-19T08:52:59;98043.00;;;6.30
20848;BMP180;10584;50.854;12.902;2023-02-19T08:58:40;98070.00;;;5.80
20848;BMP180;10584;50.854;12.902;2023-02-19T09:04:14;98079.00;;;5.70
20848;BMP180;10584;50.854;12.902;2023-02-19T09:09:53;98093.00;;;5.40
20848;BMP180;10584;50.854;12.902;2023-02-19T09:15:15;98103.00;;;5.30
20848;BMP180;10584;50.854;12.902;2023-02-19T09:20:36;98118.00;;;5.20
20848;BMP180;10584;50.854;12.902;2023-02-19T09:26:16;98130.00;;;5.30
20848;BMP180;10584;50.854;12.902;2023-02-19T09:32:04;98147.00;;;5.30
20848;BMP180;10584;50.854;12.902;2023-02-19T09:37:45;98167.00;;;5.10
20848;BMP180;10584;50.854;12.902;2023-02-19T09:43:26;98174.00;;;4.90
20848;BMP180;10584;50.854;12.902;2023-02-19T09:54:52;98200.00;;;4.40
20848;BMP180;10584;50.854;12.902;2023-02-19T10:00:26;98213.00;;;4.30
20848;BMP180;10584;50.854;12.902;2023-02-19T10:05:48;98239.00;;;4.20
20848;BMP180;10584;50.854;12.902;2023-02-19T10:11:40;98252.00;;;3.90
20848;BMP180;10584;50.854;12.902;2023-02-19T10:17:30;98263.00;;;3.90
20848;BMP180;10584;50.854;12.902;2023-02-19T10:23:19;98292.00;;;3.80
20848;BMP180;10584;50.854;12.902;2023-02-19T10:28:53;98292.00;;;3.60
20848;BMP180;10584;50.854;12.902;2023-02-19T10:34:31;98303.00;;;3.60
20848;BMP180;10584;50.854;12.902;2023-02-19T10:39:57;98319.00;;;3.60
20848;BMP180;10584;50.854;12.902;2023-02-19T10:45:33;98318.00;;;3.40
20848;BMP180;10584;50.854;12.902;2023-02-19T10:50:57;98326.00;;;3.50
20848;BMP180;10584;50.854;12.902;2023-02-19T10:56:51;98344.00;;;3.80
20848;BMP180;10584;50.854;12.902;2023-02-19T11:02:25;98347.00;;;3.80
20848;BMP180;10584;50.854;12.902;2023-02-19T11:08:23;98358.00;;;3.90
20848;BMP180;10584;50.854;12.902;2023-02-19T11:14:00;98355.00;;;3.90
20848;BMP180;10584;50.854;12.902;2023-02-19T11:19:35;98365.00;;;3.90
20848;BMP180;10584;50.854;12.902;2023-02-19T11:25:20;98377.00;;;3.90
20848;BMP180;10584;50.854;12.902;2023-02-19T11:30:54;98385.00;;;3.90
20848;BMP180;10584;50.854;12.902;2023-02-19T11:36:52;98387.00;;;3.80
20848;BMP180;10584;50.854;12.902;2023-02-19T11:42:56;98379.00;;;4.00
20848;BMP180;10584;50.854;12.902;2023-02-19T12:12:19;98424.00;;;4.00
20848;BMP180;10584;50.854;12.902;2023-02-19T12:18:25;98436.00;;;4.10
20848;BMP180;10584;50.854;12.902;2023-02-19T12:24:10;98436.00;;;3.90
20848;BMP180;10584;50.854;12.902;2023-02-19T12:36:04;98446.00;;;4.10
20848;BMP180;10584;50.854;12.902;2023-02-19T12:42:10;98454.00;;;4.20
20848;BMP180;10584;50.854;12.902;2023-02-19T13:05:22;98475.00;;;4.30
20848;BMP180;10584;50.854;12.902;2023-02-19T13:17:01;98469.00;;;4.30
20848;BMP180;10584;50.854;12.902;2023-02-19T13:29:21;98478.00;;;4.20
20848;BMP180;10584;50.854;12.902;2023-02-19T13:40:56;98495.00;;;4.40
20848;BMP180;10584;50.854;12.902;2023-02-19T13:46:58;98495.00;;;4.40
20848;BMP180;10584;50.854;12.902;2023-02-19T13:52:46;98493.00;;;4.30
20848;BMP180;10584;50.854;12.902;2023-02-19T13:58:57;98501.00;;;4.40
20848;BMP180;10584;50.854;12.902;2023-02-19T14:04:43;98500.00;;;4.50
20848;BMP180;10584;50.854;12.902;2023-02-19T14:10:57;98500.00;;;4.50
20848;BMP180;10584;50.854;12.902;2023-02-19T14:16:50;98513.00;;;4.50
20848;BMP180;10584;50.854;12.902;2023-02-19T14:28:31;98534.00;;;4.60
20848;BMP180;10584;50.854;12.902;2023-02-19T14:34:21;98535.00;;;4.50
20848;BMP180;10584;50.854;12.902;2023-02-19T14:39:48;98537.00;;;4.50
20848;BMP180;10584;50.854;12.902;2023-02-19T14:45:14;98534.00;;;4.40
20848;BMP180;10584;50.854;12.902;2023-02-19T14:50:37;98543.00;;;4.50
20848;BMP180;10584;50.854;12.902;2023-02-19T14:56:15;98540.00;;;4.70
20848;BMP180;10584;50.854;12.902;2023-02-19T15:02:15;98566.00;;;4.70
20848;BMP180;10584;50.854;12.902;2023-02-19T15:08:02;98568.00;;;4.60
20848;BMP180;10584;50.854;12.902;2023-02-19T15:13:33;98572.00;;;4.50
20848;BMP180;10584;50.854;12.902;2023-02-19T15:19:13;98569.00;;;4.30
20848;BMP180;10584;50.854;12.902;2023-02-19T15:24:44;98562.00;;;4.20
20848;BMP180;10584;50.854;12.902;2023-02-19T15:35:45;98582.00;;;4.20
20848;BMP180;10584;50.854;12.902;2023-02-19T15:41:32;98587.00;;;4.20
20848;BMP180;10584;50.854;12.902;2023-02-19T15:47:34;98591.00;;;4.00
20848;BMP180;10584;50.854;12.902;2023-02-19T15:53:35;98589.00;;;4.00
20848;BMP180;10584;50.854;12.902;2023-02-19T15:59:27;98592.00;;;3.80
20848;BMP180;10584;50.854;12.902;2023-02-19T16:04:52;98587.00;;;3.70
20848;BMP180;10584;50.854;12.902;2023-02-19T16:10:21;98596.00;;;3.60
20848;BMP180;10584;50.854;12.902;2023-02-19T16:16:02;98600.00;;;3.50
20848;BMP180;10584;50.854;12.902;2023-02-19T16:21:47;98600.00;;;3.40
20848;BMP180;10584;50.854;12.902;2023-02-19T16:44:34;98637.00;;;3.00
20848;BMP180;10584;50.854;12.902;2023-02-19T16:49:58;98640.00;;;2.80
20848;BMP180;10584;50.854;12.902;2023-02-19T16:55:21;98649.00;;;2.70
20848;BMP180;10584;50.854;12.902;2023-02-19T17:00:45;98662.00;;;2.60
20848;BMP180;10584;50.854;12.902;2023-02-19T17:06:18;98666.00;;;2.60
20848;BMP180;10584;50.854;12.902;2023-02-19T17:12:01;98677.00;;;2.60
20848;BMP180;10584;50.854;12.902;2023-02-19T17:17:30;98692.00;;;2.60
20848;BMP180;10584;50.854;12.902;2023-02-19T17:23:14;98692.00;;;2.40
20848;BMP180;10584;50.854;12.902;2023-02-19T17:28:59;98694.00;;;2.40
20848;BMP180;10584;50.854;12.902;2023-02-19T17:34:28;98708.00;;;2.30
20848;BMP180;10584;50.854;12.902;2023-02-19T17:39:49;98711.00;;;2.20
20848;BMP180;10584;50.854;12.902;2023-02-19T17:45:10;98713.00;;;2.20
20848;BMP180;10584;50.854;12.902;2023-02-19T17:50:32;98708.00;;;2.10
20848;BMP180;10584;50.854;12.902;2023-02-19T17:55:56;98709.00;;;2.10
20848;BMP180;10584;50.854;12.902;2023-02-19T18:01:51;98713.00;;;2.00
20848;BMP180;10584;50.854;12.902;2023-02-19T18:07:38;98721.00;;;2.00
20848;BMP180;10584;50.854;12.902;2023-02-19T18:12:59;98720.00;;;1.90
20848;BMP180;10584;50.854;12.902;2023-02-19T18:18:26;98722.00;;;1.90
20848;BMP180;10584;50.854;12.902;2023-02-19T18:23:55;98746.00;;;1.80
20848;BMP180;10584;50.854;12.902;2023-02-19T18:29:21;98737.00;;;1.70
20848;BMP180;10584;50.854;12.902;2023-02-19T18:34:55;98728.00;;;1.70
20848;BMP180;10584;50.854;12.902;2023-02-19T18:40:18;98746.00;;;1.50
20848;BMP180;10584;50.854;12.902;2023-02-19T18:45:39;98752.00;;;1.60
20848;BMP180;10584;50.854;12.902;2023-02-19T18:51:16;98754.00;;;1.50
20848;BMP180;10584;50.854;12.902;2023-02-19T18:56:58;98745.00;;;1.40
20848;BMP180;10584;50.854;12.902;2023-02-19T19:02:47;98739.00;;;1.30
20848;BMP180;10584;50.854;12.902;2023-02-19T19:08:30;98753.00;;;1.20
20848;BMP180;10584;50.854;12.902;2023-02-19T19:13:53;98739.00;;;1.10
20848;BMP180;10584;50.854;12.902;2023-02-19T19:19:25;98747.00;;;1.00
20848;BMP180;10584;50.854;12.902;2023-02-19T19:24:47;98746.00;;;0.90
20848;BMP180;10584;50.854;12.902;2023-02-19T19:30:09;98748.00;;;0.90
20848;BMP180;10584;50.854;12.902;2023-02-19T19:35:30;98769.00;;;0.80
20848;BMP180;10584;50.854;12.902;2023-02-19T19:40:56;98766.00;;;0.70
20848;BMP180;10584;50.854;12.902;2023-02-19T19:46:56;98763.00;;;0.60
20848;BMP180;10584;50.854;12.902;2023-02-19T19:52:36;98758.00;;;0.50
20848;BMP180;10584;50.854;12.902;2023-02-19T19:58:17;98762.00;;;0.40
20848;BMP180;10584;50.854;12.902;2023-02-19T20:03:58;98756.00;;;0.30
20848;BMP180;10584;50.854;12.902;2023-02-19T20:09:49;98758.00;;;0.30
20848;BMP180;10584;50.854;12.902;2023-02-19T20:15:25;98752.00;;;0.20
20848;BMP180;10584;50.854;12.902;2023-02-19T20:20:54;98752.00;;;0.10
20848;BMP180;10584;50.854;12.902;2023-02-19T20:26:39;98739.00;;;0.10
20848;BMP180;10584;50.854;12.902;2023-02-19T20:32:20;98730.00;;;0.10
20848;BMP180;10584;50.854;12.902;2023-02-19T20:38:01;98743.00;;;0.10
20848;BMP180;10584;50.854;12.902;2023-02-19T20:43:30;98747.00;;;0.20
20848;BMP180;10584;50.854;12.902;2023-02-19T20:49:01;98757.00;;;0.30
20848;BMP180;10584;50.854;12.902;2023-02-19T20:54:30;98762.00;;;0.40
20848;BMP180;10584;50.854;12.902;2023-02-19T20:59:52;98749.00;;;0.40
20848;BMP180;10584;50.854;12.902;2023-02-19T21:05:19;98767.00;;;0.60
20848;BMP180;10584;50.854;12.902;2023-02-19T21:11:12;98762.00;;;0.70
20848;BMP180;10584;50.854;12.902;2023-02-19T21:16:43;98776.00;;;0.80
20848;BMP180;10584;50.854;12.902;2023-02-19T21:22:34;98764.00;;;1.00
20848;BMP180;10584;50.854;12.902;2023-02-19T21:28:15;98781.00;;;1.10
20848;BMP180;10584;50.854;12.902;2023-02-19T21:33:54;98760.00;;;1.30
20848;BMP180;10584;50.854;12.902;2023-02-19T21:39:30;98771.00;;;1.40
20848;BMP180;10584;50.854;12.902;2023-02-19T21:44:52;98787.00;;;1.50
20848;BMP180;10584;50.854;12.902;2023-02-19T21:50:13;98785.00;;;1.60
20848;BMP180;10584;50.854;12.902;2023-02-19T21:55:35;98771.00;;;1.70
20848;BMP180;10584;50.854;12.902;2023-02-19T22:00:58;98776.00;;;1.70
20848;BMP180;10584;50.854;12.902;2023-02-19T22:06:32;98777.00;;;1.80
20848;BMP180;10584;50.854;12.902;2023-02-19T22:12:12;98766.00;;;2.00
20848;BMP180;10584;50.854;12.902;2023-02-19T22:17:48;98763.00;;;2.00
20848;BMP180;10584;50.854;12.902;2023-02-19T22:23:37;98757.00;;;2.10
20848;BMP180;10584;50.854;12.902;2023-02-19T22:29:04;98754.00;;;2.20
20848;BMP180;10584;50.854;12.902;2023-02-19T22:34:36;98760.00;;;2.40
20848;BMP180;10584;50.854;12.902;2023-02-19T22:39:57;98755.00;;;2.40
20848;BMP180;10584;50.854;12.902;2023-02-19T22:45:19;98754.00;;;2.50
20848;BMP180;10584;50.854;12.902;2023-02-19T22:50:40;98748.00;;;2.60
20848;BMP180;10584;50.854;12.902;2023-02-19T22:56:17;98743.00;;;2.70
20848;BMP180;10584;50.854;12.902;2023-02-19T23:01:49;98741.00;;;2.80
20848;BMP180;10584;50.854;12.902;2023-02-19T23:07:22;98744.00;;;2.90
20848;BMP180;10584;50.854;12.902;2023-02-19T23:13:12;98731.00;;;3.00
20848;BMP180;10584;50.854;12.902;2023-02-19T23:19:12;98729.00;;;3.10
20848;BMP180;10584;50.854;12.902;2023-02-19T23:24:48;98723.00;;;3.20
20848;BMP180;10584;50.854;12.902;2023-02-19T23:30:13;98729.00;;;3.20
20848;BMP180;10584;50.854;12.902;2023-02-19T23:35:36;98721.00;;;3.40
20848;BMP180;10584;50.854;12.902;2023-02-19T23:41:18;98710.00;;;3.40
20848;BMP180;10584;50.854;12.902;2023-02-19T23:46:56;98697.00;;;3.40
20848;BMP180;10584;50.854;12.902;2023-02-19T23:52:34;98706.00;;;3.50
20848;BMP180;10584;50.854;12.902;2023-02-19T23:57:58;98705.00;;;3.50
